x

South Santa Rosa Is. Ca (46069) Wave Buoy

4:50 - Sat 19th Aug 2017 All times are PDT. -7 hours from GMT.

  • Sig Wave height 4.9ft
  • Swell Direction
  • Peak Period 15s
  • Average Period 9s
  • Wind
    9mph, 11mph gusts
  • Sea Temp 65°f
  • Luft Temp 63°f
  • Sea Pressure 1013mb
  • South Santa Rosa Is. Ca
  • South Santa Rosa Is. Ca

More Historic Weather Station data

Upgrade to MSW Pro to gain access to the past 30 days of data for over 8000 Wavebouys and Weather Stations around the globe.

Join

Comparision Forecast

View Surf forecast
   
Sa 08/19 4:50 5ft 15s 9s 9 11 mph 1013mb 65f 63f
3:50 5ft 16s 9s 9 11 mph 1013.5mb 65f 63f
2:50 5ft 15s 10s 9 11 mph 1014mb 65f 63f
1:50 5ft 15s 9s 7 9 mph 1014.5mb 65f 63f
12:50 5ft 15s 10s 4 7 mph 1014.8mb 65f 63f
11:50 4.5ft 15s 9s 7 7 mph 1015.1mb 64f 63f
10:50 5ft 15s 9s 7 9 mph 1015.2mb 64f 62f
9:50 5ft 15s 8s 7 9 mph 1015.2mb 64f 62f
8:50 5ft 16s 8s 9 11 mph 1014.9mb 64f 62f
7:50 4.5ft 15s 8s 7 9 mph 1014.7mb 64f 62f
6:50 5ft 16s 8s 9 11 mph 1014.5mb 63f 62f
5:50 5ft 16s 8s 9 13 mph 1014.1mb 64f 62f
4:50 5ft 16s 7s 11 13 mph 1013.8mb 64f 61f
3:50 5ft 16s 7s 11 13 mph 1013.8mb 64f 62f
2:50 5ft 16s 7s 13 18 mph 1013.8mb 64f 62f
12:50 5ft 15s 7s 16 18 mph 1014.3mb 64f 62f
Fr 08/18 11:50 5.5ft 16s 7s 16 18 mph 1014.5mb 64f 62f
10:50 5ft 16s 6s 16 20 mph 1014.6mb 63f 62f
9:50 5ft 16s 7s 16 18 mph 1014.6mb 64f 62f
8:50 5ft 9s 6s 16 20 mph 1014.2mb 64f 62f
7:50 5ft 16s 7s 18 20 mph 1014mb 64f 62f
6:50 4.5ft 9s 7s 16 20 mph 1013.8mb 64f 62f
5:50 5ft 16s 7s 16 18 mph 1014.1mb 64f 62f
3:50 5ft 16s 8s 13 16 mph 1015.5mb 64f 63f
2:50 5ft 10s 8s 16 18 mph 1015.9mb 64f 63f
1:50 5ft 16s 8s 13 16 mph 1016.2mb 64f 63f
12:50 5ft 16s 9s 13 16 mph 1016.6mb 64f 62f
11:50 4.5ft 16s 8s 11 13 mph 1016.9mb 63f 62f
10:50 5ft 16s 8s 11 13 mph 1016.8mb 63f 62f
9:50 5ft 16s 8s 11 13 mph 1016.8mb 63f 62f
8:50 5ft 16s 7s 13 16 mph 1016.4mb 63f 62f
7:50 5ft 14s 7s 13 18 mph 1016.1mb 63f 61f
6:50 5ft 16s 7s 13 18 mph 1015.7mb 63f 62f
5:50 5ft 16s 7s 13 18 mph 1015.2mb 63f 62f
4:50 5.5ft 16s 7s 16 18 mph 1014.8mb 63f 62f
3:50 5ft 15s 7s 16 18 mph 1015mb 63f 62f
2:50 5ft 16s 7s 16 22 mph 1015mb 63f 62f
1:50 5ft 10s 7s 18 20 mph 1015.3mb 63f 62f
12:50 5ft 10s 7s 16 20 mph 1016mb 63f 62f
Do 08/17 11:50 5ft 15s 8s 13 18 mph 1016mb 63f 62f
10:50 5ft 15s 7s 13 16 mph 1016.1mb 63f 62f
9:50 5ft 16s 7s 18 20 mph 1015.8mb 63f 62f
8:50 5.5ft 16s 8s 16 18 mph 1015.5mb 63f 62f
7:50 5ft 10s 7s 16 20 mph 1015mb 64f 63f
6:50 5ft 10s 7s 16 20 mph 1014.9mb 64f 63f
5:50 5ft 16s 7s 16 18 mph 1015mb 64f 63f
4:50 5ft 10s 7s 16 18 mph 1015.4mb 64f 63f
3:50 5ft 10s 7s 16 18 mph 1015.5mb 64f 63f
2:50 5ft 16s 8s 13 16 mph 1016.2mb 64f 62f
1:50 5.5ft 15s 8s 13 16 mph 1016.5mb 64f 62f
12:50 5ft 15s 8s 11 16 mph 1017.1mb 63f 62f
11:50 5ft 15s 8s 13 16 mph 1017.3mb 63f 62f
10:50 5ft 15s 8s 13 16 mph 1017.2mb 63f 62f
9:50 5ft 15s 8s 11 16 mph 1017.1mb 63f 61f
8:50 4.5ft 16s 7s 11 13 mph 1016.8mb 63f 61f
7:50 5ft 15s 7s 16 18 mph 1016.3mb 63f 61f
6:50 5ft 16s 7s 16 18 mph 1015.7mb 63f 61f
5:50 5ft 16s 6s 18 20 mph 1015mb 63f 61f
4:50 5ft 15s 6s 18 20 mph 1014.7mb 63f 62f
3:50 5ft 16s 6s 18 20 mph 1014.7mb 63f 62f
2:50 5ft 16s 6s 18 20 mph 1014.6mb 63f 62f
1:50 5ft 16s 7s 18 22 mph 1014.9mb 63f 62f
12:50 5ft 16s 6s 18 20 mph 1015.1mb 63f 62f
Mi 08/16 11:50 5ft 16s 7s 18 22 mph 1015.1mb 63f 62f
10:50 5ft 16s 7s 16 20 mph 1015.1mb 63f 62f
9:50 4.5ft 16s 7s 18 22 mph 1015mb 63f 62f
8:50 5ft 15s 7s 18 22 mph 1014.6mb 63f 62f
7:50 5ft 16s 7s 18 22 mph 1014.2mb 63f 62f
6:50 5ft 16s 7s 18 22 mph 1014mb 63f 62f
5:50 5ft 16s 7s 18 20 mph 1014.4mb 63f 62f
4:50 5ft 16s 7s 18 20 mph 1014.6mb 63f 62f
3:50 4.5ft 17s 7s 16 18 mph 1014.8mb 63f 62f
2:50 5ft 17s 7s 16 18 mph 1015.2mb 62f 61f
1:50 5.5ft 17s 7s 16 18 mph 1015.5mb 62f 61f
12:50 5.5ft 17s 7s 16 18 mph 1015.8mb 62f 61f
11:50 5.5ft 17s 7s 16 18 mph 1015.7mb 62f 61f
10:50 5.5ft 17s 7s 16 20 mph 1015.8mb 62f 61f
9:50 5.5ft 17s 7s 18 20 mph 1015.6mb 62f 61f
8:50 5ft 17s 6s 18 22 mph 1015.3mb 62f 61f
7:50 5ft 17s 6s 18 22 mph 1015.1mb 62f 61f
6:50 5ft 16s 6s 20 25 mph 1014.6mb 62f 61f
5:50 5ft 17s 6s 18 20 mph 1014.2mb 62f 61f
4:50 5ft 17s 6s 18 22 mph 1013.8mb 62f 61f
3:50 5ft 17s 6s 18 22 mph 1013.8mb 62f 61f
2:50 5ft 19s 6s 18 22 mph 1013.6mb 62f 61f
12:50 5ft 19s 6s 18 20 mph 1013.7mb 62f 61f